Time;durP1;ratioP1;P1;durP2;ratioP2;P2;SDS_P1;SDS_P2;PMS_P1;PMS_P2;Temp;Humidity;BMP_temperature;BMP_pressure;BME280_temperature;BME280_humidity;BME280_pressure;Samples;Min_cycle;Max_cycle;Signal;HPM_P1;HPM_P2
2021/04/28 00:01:33;;;;;;;0.65;0.60;;;12.10;99.90;;;;;;5050440;28;20518;-76
2021/04/28 00:03:59;;;;;;;1.67;1.10;;;12.10;99.90;;;;;;5044676;28;20033;-77
2021/04/28 00:06:24;;;;;;;1.65;1.08;;;12.00;99.90;;;;;;5050512;28;20369;-76
2021/04/28 00:08:50;;;;;;;0.80;0.80;;;12.00;99.90;;;;;;5042651;28;20033;-76
2021/04/28 00:11:16;;;;;;;0.88;0.63;;;12.00;99.90;;;;;;5034458;28;20483;-77
2021/04/28 00:13:41;;;;;;;0.82;0.63;;;12.00;99.90;;;;;;5044830;28;20031;-78
2021/04/28 00:16:07;;;;;;;1.00;0.80;;;12.00;99.90;;;;;;5050246;28;20087;-77
2021/04/28 00:18:33;;;;;;;1.38;0.90;;;12.00;99.90;;;;;;5044936;28;20029;-77
2021/04/28 00:20:59;;;;;;;1.38;0.90;;;12.00;99.90;;;;;;5052657;28;20017;-77
2021/04/28 00:23:24;;;;;;;1.75;0.88;;;12.00;99.90;;;;;;5042237;28;20033;-78
2021/04/28 00:25:50;;;;;;;3.85;1.13;;;12.00;99.90;;;;;;5034395;28;20100;-76
2021/04/28 00:28:16;;;;;;;1.40;1.00;;;12.00;99.90;;;;;;5033704;28;20052;-76
2021/04/28 00:30:42;;;;;;;1.27;0.90;;;12.00;99.90;;;;;;5018780;28;20029;-76
2021/04/28 00:33:08;;;;;;;1.13;0.93;;;12.00;99.90;;;;;;5039926;28;20025;-76
2021/04/28 00:35:34;;;;;;;1.58;1.17;;;12.10;99.90;;;;;;5053584;28;20059;-76
2021/04/28 00:38:00;;;;;;;1.17;0.93;;;12.10;99.90;;;;;;5045785;28;20088;-76
2021/04/28 00:40:32;;;;;;;1.52;0.95;;;12.10;99.90;;;;;;5033267;28;20032;-76
2021/04/28 00:42:59;;;;;;;1.10;1.00;;;12.10;99.90;;;;;;5040195;28;20102;-77
2021/04/28 00:45:25;;;;;;;1.13;1.00;;;12.00;99.90;;;;;;5053112;28;20025;-77
2021/04/28 00:47:56;;;;;;;1.13;1.02;;;12.10;99.90;;;;;;5046635;28;20056;-77
2021/04/28 00:50:34;;;;;;;1.67;1.15;;;12.10;99.90;;;;;;5033338;28;20073;-76
2021/04/28 00:53:04;;;;;;;1.50;1.23;;;12.00;99.90;;;;;;5040579;28;20196;-77
2021/04/28 00:55:30;;;;;;;1.35;0.85;;;12.10;99.90;;;;;;5053027;28;20279;-77
2021/04/28 00:57:56;;;;;;;2.45;1.02;;;12.10;99.90;;;;;;5039266;28;20053;-76
2021/04/28 01:00:23;;;;;;;0.88;0.80;;;12.10;99.90;;;;;;5052766;28;20141;-77
2021/04/28 01:02:49;;;;;;;1.20;1.02;;;12.10;99.90;;;;;;5040464;28;20041;-77
2021/04/28 01:05:17;;;;;;;1.83;0.98;;;12.00;99.90;;;;;;5051595;28;20025;-77
2021/04/28 01:07:45;;;;;;;1.08;0.90;;;12.00;99.90;;;;;;5040411;28;20029;-77
2021/04/28 01:10:16;;;;;;;1.38;1.10;;;12.00;99.90;;;;;;5011783;28;20026;-77
2021/04/28 01:12:42;;;;;;;1.13;0.95;;;12.00;99.90;;;;;;5034260;28;20101;-78
2021/04/28 01:15:14;;;;;;;1.30;0.90;;;12.00;99.90;;;;;;5052303;28;20481;-78
2021/04/28 01:17:40;;;;;;;0.90;0.80;;;12.00;99.90;;;;;;5041128;28;20033;-77
2021/04/28 01:20:09;;;;;;;0.77;0.70;;;11.90;99.90;;;;;;5052118;28;20029;-77
2021/04/28 01:22:42;;;;;;;0.88;0.82;;;12.00;99.90;;;;;;5041503;28;20509;-77
2021/04/28 01:25:10;;;;;;;1.15;0.95;;;11.90;99.90;;;;;;5052206;28;20025;-77
2021/04/28 01:27:38;;;;;;;1.20;0.90;;;11.90;99.90;;;;;;5040955;28;20025;-77
2021/04/28 01:30:06;;;;;;;1.45;1.27;;;11.90;99.90;;;;;;5051631;28;20091;-77
2021/04/28 01:32:34;;;;;;;0.90;0.80;;;11.90;99.90;;;;;;5041772;28;20032;-77
2021/04/28 01:35:00;;;;;;;;;;;12.00;99.90;;;;;;5051564;28;20013;-77
2021/04/28 01:37:28;;;;;;;2.63;1.10;;;12.00;99.90;;;;;;5042449;28;19909;-76
2021/04/28 01:39:54;;;;;;;;;;;12.00;99.90;;;;;;5050382;28;20017;-77
2021/04/28 01:42:20;;;;;;;8.10;1.20;;;11.90;99.90;;;;;;5041593;28;20409;-76
2021/04/28 01:44:48;;;;;;;2.33;0.98;;;11.90;99.90;;;;;;5049167;28;20104;-77
2021/04/28 01:47:18;;;;;;;1.35;1.15;;;11.90;99.90;;;;;;5044035;28;20099;-77
2021/04/28 01:49:45;;;;;;;1.35;1.13;;;11.90;99.90;;;;;;5047315;28;20029;-76
2021/04/28 01:52:11;;;;;;;2.13;1.10;;;11.90;99.90;;;;;;5042715;28;20447;-76
2021/04/28 01:54:37;;;;;;;5.35;1.20;;;11.90;99.90;;;;;;5069228;28;20056;-76
2021/04/28 01:57:04;;;;;;;3.45;1.10;;;11.80;99.90;;;;;;5067901;28;20048;-78
2021/04/28 01:59:31;;;;;;;1.40;0.93;;;11.80;99.90;;;;;;5046803;28;20017;-76
2021/04/28 02:01:58;;;;;;;3.33;1.10;;;11.70;99.90;;;;;;5053903;28;20049;-76
2021/04/28 02:04:24;;;;;;;1.17;1.08;;;11.70;99.90;;;;;;5069532;28;20024;-76
2021/04/28 02:06:51;;;;;;;1.70;1.17;;;11.70;99.90;;;;;;5066888;28;20048;-77
2021/04/28 02:09:17;;;;;;;1.35;1.20;;;11.70;99.90;;;;;;5044987;28;20090;-77
2021/04/28 02:11:43;;;;;;;1.52;1.00;;;11.60;99.90;;;;;;5046606;28;20029;-77
2021/04/28 02:14:14;;;;;;;2.17;1.00;;;11.60;99.90;;;;;;5043348;28;20553;-77
2021/04/28 02:16:41;;;;;;;1.77;1.10;;;11.50;99.90;;;;;;5046713;28;20039;-77
2021/04/28 02:19:09;;;;;;;0.95;0.85;;;11.60;99.90;;;;;;5033274;28;20031;-76
2021/04/28 02:21:49;;;;;;;1.77;1.08;;;11.50;99.90;;;;;;5046537;28;20045;-77
2021/04/28 02:24:15;;;;;;;1.80;0.80;;;11.50;99.90;;;;;;5036220;28;20395;-77
2021/04/28 02:26:42;;;;;;;1.10;0.87;;;11.50;99.90;;;;;;5047834;28;20024;-76
2021/04/28 02:29:08;;;;;;;0.88;0.75;;;11.50;99.90;;;;;;5043500;28;20471;-76
2021/04/28 02:31:35;;;;;;;0.90;0.90;;;11.60;99.90;;;;;;5045405;28;20056;-76
2021/04/28 02:34:03;;;;;;;1.40;1.20;;;11.60;99.90;;;;;;5038665;28;20033;-77
2021/04/28 02:36:33;;;;;;;0.85;0.70;;;11.60;99.90;;;;;;5033466;28;20072;-76
2021/04/28 02:39:25;;;;;;;1.25;1.00;;;11.60;99.90;;;;;;5039698;28;20180;-77
2021/04/28 02:41:52;;;;;;;2.35;1.10;;;11.50;99.90;;;;;;5036172;28;20063;-76
2021/04/28 02:44:20;;;;;;;1.13;1.00;;;11.50;99.90;;;;;;5042596;28;20057;-77
2021/04/28 02:46:49;;;;;;;5.05;1.20;;;11.60;99.90;;;;;;5046955;28;20120;-77
2021/04/28 02:49:19;;;;;;;1.77;1.10;;;11.60;99.90;;;;;;5043673;28;20131;-77
2021/04/28 02:51:46;;;;;;;1.05;0.95;;;11.60;99.90;;;;;;5046937;28;20032;-76
2021/04/28 02:54:13;;;;;;;4.00;1.02;;;11.50;99.90;;;;;;5030865;28;20009;-76
2021/04/28 02:56:39;;;;;;;1.13;1.02;;;11.40;99.90;;;;;;5035767;28;20486;-76
2021/04/28 02:59:06;;;;;;;1.10;0.75;;;11.40;99.90;;;;;;5041894;28;20361;-76
2021/04/28 03:01:32;;;;;;;1.50;1.17;;;11.40;99.90;;;;;;5047176;28;20073;-77
2021/04/28 03:03:59;;;;;;;1.42;1.00;;;11.40;99.90;;;;;;5041927;28;20420;-77
2021/04/28 03:06:24;;;;;;;2.65;0.80;;;11.40;99.90;;;;;;5046461;28;20116;-77
2021/04/28 03:08:50;;;;;;;2.05;0.95;;;11.40;99.90;;;;;;5039464;28;20181;-77
2021/04/28 03:11:16;;;;;;;2.60;1.00;;;11.40;99.90;;;;;;5032462;28;20057;-76
2021/04/28 03:13:43;;;;;;;1.42;1.02;;;11.50;99.90;;;;;;5040590;28;20079;-76
2021/04/28 03:16:10;;;;;;;1.40;1.13;;;11.40;99.90;;;;;;5047149;28;20021;-76
2021/04/28 03:18:37;;;;;;;;;;;11.30;99.90;;;;;;5042274;28;20031;-77
2021/04/28 03:21:03;;;;;;;3.95;1.05;;;11.30;99.90;;;;;;5047618;28;19913;-76
2021/04/28 03:23:29;;;;;;;7.00;1.30;;;11.30;99.90;;;;;;5040868;28;20499;-77
2021/04/28 03:25:55;;;;;;;1.40;0.97;;;11.20;99.90;;;;;;5048791;28;20025;-76
2021/04/28 03:28:21;;;;;;;2.05;1.30;;;11.20;99.90;;;;;;5039965;28;20021;-76
2021/04/28 03:30:47;;;;;;;1.23;0.98;;;11.20;99.90;;;;;;5052764;28;20021;-76
2021/04/28 03:33:13;;;;;;;1.20;0.98;;;11.10;99.90;;;;;;5042063;28;20086;-76
2021/04/28 03:35:39;;;;;;;1.75;1.05;;;11.00;99.90;;;;;;5052793;28;20025;-76
2021/04/28 03:38:04;;;;;;;1.25;0.98;;;11.00;99.90;;;;;;5042646;28;20048;-76
2021/04/28 03:40:30;;;;;;;3.35;1.15;;;11.00;99.90;;;;;;5054442;28;20112;-77
2021/04/28 03:42:56;;;;;;;1.15;1.05;;;11.00;99.90;;;;;;5040617;28;20091;-76
2021/04/28 03:45:23;;;;;;;2.45;1.45;;;10.90;99.90;;;;;;5054451;28;20029;-76
2021/04/28 03:47:49;;;;;;;1.98;1.08;;;10.90;99.90;;;;;;5042129;28;20099;-76
2021/04/28 03:50:16;;;;;;;1.73;1.00;;;10.90;99.90;;;;;;5054187;28;20479;-76
2021/04/28 03:52:42;;;;;;;2.78;1.50;;;10.80;99.90;;;;;;5042140;28;20526;-76
2021/04/28 03:55:09;;;;;;;1.40;1.20;;;10.90;99.90;;;;;;5054145;28;20116;-76
2021/04/28 03:57:35;;;;;;;;;;;10.80;99.90;;;;;;5043648;28;20071;-76
2021/04/28 04:00:03;;;;;;;4.72;1.20;;;10.80;99.90;;;;;;5052918;28;19923;-76
2021/04/28 04:02:31;;;;;;;1.52;1.27;;;10.70;99.90;;;;;;5046202;28;20076;-76
2021/04/28 04:04:59;;;;;;;3.00;1.13;;;10.70;99.90;;;;;;5035741;28;20116;-76
2021/04/28 04:07:24;;;;;;;;;;;10.70;99.90;;;;;;5043242;28;20064;-77
2021/04/28 04:09:51;;;;;;;1.42;0.95;;;10.80;99.90;;;;;;5036874;28;20363;-77
2021/04/28 04:12:17;;;;;;;2.13;1.30;;;10.90;99.90;;;;;;5039077;28;20407;-76
2021/04/28 04:14:43;;;;;;;1.73;1.20;;;10.80;99.90;;;;;;5048940;28;20087;-76
2021/04/28 04:17:09;;;;;;;3.00;1.65;;;10.80;99.90;;;;;;5046370;28;20030;-77
2021/04/28 04:19:35;;;;;;;3.95;1.10;;;10.80;99.90;;;;;;5047821;28;20021;-75
2021/04/28 04:22:01;;;;;;;1.23;1.13;;;10.90;99.90;;;;;;5047319;28;20063;-77
2021/04/28 04:24:26;;;;;;;3.90;1.20;;;10.90;99.90;;;;;;5038277;28;20025;-77
2021/04/28 04:26:52;;;;;;;1.42;1.10;;;11.00;99.90;;;;;;5038928;28;20040;-76
2021/04/28 04:29:18;;;;;;;2.30;1.30;;;11.00;99.90;;;;;;5032578;28;20079;-77
2021/04/28 04:31:43;;;;;;;3.17;1.30;;;11.10;99.90;;;;;;5038935;28;20395;-76
2021/04/28 04:34:09;;;;;;;1.38;0.98;;;11.20;99.90;;;;;;5034499;28;20009;-76
2021/04/28 04:36:35;;;;;;;3.17;1.30;;;11.20;99.90;;;;;;5037695;28;20077;-76
2021/04/28 04:39:00;;;;;;;2.13;1.25;;;11.20;99.90;;;;;;5044320;28;20163;-76
2021/04/28 04:41:26;;;;;;;1.65;1.35;;;11.20;99.90;;;;;;5048605;28;20069;-76
2021/04/28 04:43:52;;;;;;;1.73;1.15;;;11.30;99.90;;;;;;5044415;28;20025;-76
2021/04/28 04:46:18;;;;;;;1.38;1.27;;;11.20;99.90;;;;;;5049778;28;20376;-76
2021/04/28 04:48:44;;;;;;;2.88;1.40;;;11.20;99.90;;;;;;5044508;28;20107;-77
2021/04/28 04:51:09;;;;;;;3.92;1.17;;;11.20;99.90;;;;;;5049809;28;20069;-77
2021/04/28 04:53:35;;;;;;;2.10;1.50;;;11.20;99.90;;;;;;5043965;28;20025;-76
2021/04/28 04:56:01;;;;;;;3.05;1.40;;;11.40;99.90;;;;;;5049368;28;20651;-77
2021/04/28 04:58:27;;;;;;;2.50;1.95;;;11.40;99.90;;;;;;5043106;28;20119;-76
2021/04/28 05:00:52;;;;;;;2.47;1.42;;;11.40;99.90;;;;;;5051804;28;20381;-76
2021/04/28 05:03:18;;;;;;;2.10;1.40;;;11.50;99.90;;;;;;5041616;28;20038;-77
2021/04/28 05:05:43;;;;;;;1.55;1.40;;;11.50;99.90;;;;;;5032816;28;20384;-78
2021/04/28 05:08:09;;;;;;;2.85;1.50;;;11.40;99.90;;;;;;5047242;28;20484;-76
2021/04/28 05:10:35;;;;;;;2.05;1.50;;;11.40;99.90;;;;;;5032722;28;20028;-77
2021/04/28 05:13:01;;;;;;;2.35;1.35;;;11.40;99.90;;;;;;5040203;28;20033;-77
2021/04/28 05:15:26;;;;;;;2.20;1.42;;;11.30;99.90;;;;;;5052828;28;20391;-77
2021/04/28 05:17:57;;;;;;;3.80;1.38;;;11.40;99.90;;;;;;5040484;28;20064;-77
2021/04/28 05:20:23;;;;;;;2.35;2.05;;;11.40;99.90;;;;;;5052345;28;20021;-76
2021/04/28 05:22:49;;;;;;;1.83;1.43;;;11.50;99.90;;;;;;5040179;28;20048;-76
2021/04/28 05:25:15;;;;;;;3.13;1.27;;;11.50;99.90;;;;;;5052448;28;20021;-76
2021/04/28 05:27:41;;;;;;;3.10;1.70;;;11.50;99.90;;;;;;5040626;28;20052;-76
2021/04/28 05:30:08;;;;;;;1.40;1.30;;;11.60;99.90;;;;;;5052059;28;20064;-77
2021/04/28 05:32:34;;;;;;;2.38;1.40;;;11.70;99.90;;;;;;5045463;28;20388;-76
2021/04/28 05:34:59;;;;;;;5.72;1.73;;;11.70;99.90;;;;;;5032254;28;20439;-75
2021/04/28 05:37:25;;;;;;;1.35;1.17;;;11.80;99.90;;;;;;5043840;28;20025;-77
2021/04/28 05:39:51;;;;;;;2.95;1.63;;;11.80;99.90;;;;;;5034728;28;20424;-76
2021/04/28 05:42:17;;;;;;;2.33;1.25;;;11.90;99.90;;;;;;5037334;28;20029;-77
2021/04/28 05:44:44;;;;;;;2.20;1.42;;;11.90;99.90;;;;;;5048436;28;20032;-76
2021/04/28 05:47:11;;;;;;;1.48;1.15;;;12.00;99.90;;;;;;5046201;28;20025;-76
2021/04/28 05:49:36;;;;;;;2.28;1.33;;;12.10;99.90;;;;;;5045534;28;20057;-76
2021/04/28 05:52:02;;;;;;;2.90;1.38;;;12.10;99.90;;;;;;5049179;28;20029;-76
2021/04/28 05:54:28;;;;;;;2.17;1.30;;;12.30;99.90;;;;;;5039373;28;20032;-76
2021/04/28 05:56:56;;;;;;;1.30;1.08;;;12.40;99.90;;;;;;5038761;28;20033;-78
2021/04/28 05:59:22;;;;;;;5.80;1.33;;;12.40;99.90;;;;;;5063564;28;20047;-77
2021/04/28 06:01:47;;;;;;;2.22;1.50;;;12.40;99.90;;;;;;5058900;28;20053;-76
2021/04/28 06:04:13;;;;;;;1.77;1.20;;;12.50;99.90;;;;;;5040960;28;20120;-77
2021/04/28 06:06:39;;;;;;;2.40;1.20;;;12.70;99.90;;;;;;5032667;28;20450;-77
2021/04/28 06:09:05;;;;;;;4.25;1.35;;;12.90;99.90;;;;;;5040490;28;20100;-77
2021/04/28 06:11:31;;;;;;;3.50;1.42;;;13.00;99.90;;;;;;5035768;28;20052;-77
2021/04/28 06:13:57;;;;;;;1.80;1.42;;;13.10;99.90;;;;;;5041146;28;20053;-76
2021/04/28 06:16:24;;;;;;;1.83;1.20;;;13.30;99.90;;;;;;5048091;28;20036;-78
2021/04/28 06:18:50;;;;;;;4.60;1.92;;;13.40;99.90;;;;;;5042540;28;20021;-77
2021/04/28 06:21:16;;;;;;;2.83;1.40;;;13.40;99.90;;;;;;5047849;28;20029;-76
2021/04/28 06:23:42;;;;;;;3.08;1.20;;;13.50;99.90;;;;;;5042420;28;20036;-76
2021/04/28 06:26:08;;;;;;;3.08;1.27;;;13.60;99.90;;;;;;5048077;28;20373;-78
2021/04/28 06:28:33;;;;;;;2.08;1.15;;;13.70;99.90;;;;;;5042217;28;20053;-76
2021/04/28 06:30:59;;;;;;;2.08;1.02;;;13.80;99.90;;;;;;5048863;28;20365;-76
2021/04/28 06:33:25;;;;;;;3.85;1.45;;;14.10;99.90;;;;;;5034271;28;20396;-76
2021/04/28 06:35:51;;;;;;;13.85;1.45;;;14.20;99.90;;;;;;5031959;28;20026;-75
2021/04/28 06:38:17;;;;;;;3.53;1.10;;;14.40;99.90;;;;;;5039937;28;20025;-77
2021/04/28 06:40:43;;;;;;;1.60;1.20;;;14.40;99.70;;;;;;5048581;28;20055;-77
2021/04/28 06:43:09;;;;;;;1.50;1.00;;;14.50;99.50;;;;;;5039534;28;20028;-76
2021/04/28 06:45:35;;;;;;;2.92;1.17;;;14.40;99.40;;;;;;5049766;28;20121;-77
2021/04/28 06:48:04;;;;;;;2.10;1.17;;;14.40;99.40;;;;;;5040968;28;20036;-75
2021/04/28 06:50:31;;;;;;;3.78;1.08;;;14.40;99.90;;;;;;5031039;28;20009;-76
2021/04/28 06:52:57;;;;;;;2.60;1.58;;;14.40;99.90;;;;;;5037706;28;20053;-76
2021/04/28 06:55:22;;;;;;;1.30;1.10;;;14.40;99.90;;;;;;5050806;28;20102;-76
2021/04/28 06:57:54;;;;;;;1.60;1.05;;;14.40;99.90;;;;;;5038161;28;20033;-76
2021/04/28 07:00:22;;;;;;;2.05;1.20;;;14.40;99.90;;;;;;5050798;28;20044;-78
2021/04/28 07:02:48;;;;;;;1.83;1.08;;;14.50;99.90;;;;;;5044308;28;20089;-78
2021/04/28 07:05:14;;;;;;;4.47;1.20;;;14.60;99.90;;;;;;5030185;28;20200;-76
2021/04/28 07:07:40;;;;;;;2.63;1.10;;;14.70;99.90;;;;;;5035867;28;20029;-77
2021/04/28 07:10:07;;;;;;;1.85;1.20;;;14.80;99.40;;;;;;5049969;28;20490;-77
2021/04/28 07:12:33;;;;;;;2.75;1.30;;;14.90;99.40;;;;;;5039674;28;20022;-77
2021/04/28 07:14:59;;;;;;;1.42;0.98;;;14.90;98.80;;;;;;5047773;28;20032;-77
2021/04/28 07:17:25;;;;;;;3.78;1.50;;;14.80;99.00;;;;;;5044037;28;20021;-78
2021/04/28 07:19:52;;;;;;;2.97;1.17;;;14.80;98.70;;;;;;5033037;28;20499;-78
2021/04/28 07:22:17;;;;;;;1.63;1.27;;;14.80;99.40;;;;;;5035818;28;20034;-77
2021/04/28 07:24:43;;;;;;;3.33;1.30;;;14.90;99.40;;;;;;5045438;28;20441;-78
2021/04/28 07:27:09;;;;;;;3.88;1.20;;;14.90;99.20;;;;;;5041530;28;20028;-77
2021/04/28 07:29:35;;;;;;;1.95;1.23;;;15.00;99.80;;;;;;5045336;28;20029;-77
2021/04/28 07:32:02;;;;;;;2.35;1.30;;;15.10;98.90;;;;;;5044060;28;20044;-75
2021/04/28 07:34:29;;;;;;;1.98;1.00;;;15.30;98.90;;;;;;5044837;28;20196;-78
2021/04/28 07:36:54;;;;;;;2.35;1.02;;;15.40;99.90;;;;;;5043765;28;20037;-76
2021/04/28 07:39:23;;;;;;;2.80;1.00;;;15.50;98.90;;;;;;5043586;28;20040;-76
2021/04/28 07:41:51;;;;;;;1.50;1.25;;;15.60;98.60;;;;;;5044345;28;20121;-77
2021/04/28 07:44:17;;;;;;;1.88;1.00;;;15.70;98.80;;;;;;5037705;28;20026;-78
2021/04/28 07:46:43;;;;;;;1.40;1.30;;;15.70;98.80;;;;;;5034661;28;20095;-77
2021/04/28 07:49:09;;;;;;;1.73;1.10;;;15.70;97.90;;;;;;5040611;28;20025;-79
2021/04/28 07:51:36;;;;;;;1.30;1.20;;;15.60;98.90;;;;;;5047178;28;20518;-80
2021/04/28 07:54:02;;;;;;;3.80;1.15;;;15.60;98.30;;;;;;5040383;28;20025;-79
2021/04/28 07:56:28;;;;;;;2.00;1.27;;;15.60;98.40;;;;;;5044842;28;20037;-77
2021/04/28 07:58:55;;;;;;;1.75;1.13;;;15.60;98.20;;;;;;5039073;28;20017;-77
2021/04/28 08:01:21;;;;;;;2.70;1.13;;;15.60;98.40;;;;;;5031487;28;20053;-77
2021/04/28 08:03:47;;;;;;;2.45;1.10;;;15.70;99.20;;;;;;5041802;28;20573;-77
2021/04/28 08:06:12;;;;;;;2.85;1.48;;;15.80;98.50;;;;;;5031670;28;20758;-78
2021/04/28 08:08:38;;;;;;;5.78;1.50;;;15.80;98.30;;;;;;5039771;28;20085;-77
2021/04/28 08:11:04;;;;;;;1.75;1.10;;;15.80;98.50;;;;;;5045801;28;20033;-77
2021/04/28 08:13:30;;;;;;;1.63;1.00;;;15.90;97.90;;;;;;5043183;28;20026;-78
2021/04/28 08:15:56;;;;;;;2.00;1.30;;;16.00;98.60;;;;;;5032476;28;20029;-78
2021/04/28 08:18:23;;;;;;;1.20;0.82;;;16.00;97.50;;;;;;5042804;28;20025;-77
2021/04/28 08:20:51;;;;;;;1.93;1.23;;;15.90;97.40;;;;;;5034058;28;20484;-79
2021/04/28 08:23:20;;;;;;;3.42;1.02;;;15.90;97.50;;;;;;5042346;28;20037;-77
2021/04/28 08:25:46;;;;;;;3.30;1.35;;;15.90;98.40;;;;;;5052268;28;20017;-77
2021/04/28 08:28:12;;;;;;;2.35;1.20;;;16.00;99.00;;;;;;5042581;28;20094;-77
2021/04/28 08:30:39;;;;;;;4.13;1.33;;;16.20;97.70;;;;;;5053477;28;20424;-78
2021/04/28 08:33:05;;;;;;;4.80;1.20;;;16.40;98.20;;;;;;5044866;28;20022;-77
2021/04/28 08:35:33;;;;;;;6.35;1.10;;;16.70;96.60;;;;;;5032421;28;20083;-77
2021/04/28 08:37:59;;;;;;;2.45;1.23;;;16.90;96.60;;;;;;5041307;28;20033;-78
2021/04/28 08:40:25;;;;;;;4.25;1.00;;;17.00;96.50;;;;;;5053289;28;20471;-78
2021/04/28 08:42:50;;;;;;;4.70;1.42;;;17.10;95.80;;;;;;5046647;28;20379;-77
2021/04/28 08:45:19;;;;;;;4.65;1.60;;;17.20;95.10;;;;;;5033637;28;20018;-76
2021/04/28 08:47:45;;;;;;;1.80;1.20;;;17.20;95.50;;;;;;5039261;28;20040;-78
2021/04/28 08:50:12;;;;;;;5.53;1.15;;;17.30;96.90;;;;;;5053820;28;20025;-79
2021/04/28 08:52:39;;;;;;;5.88;1.20;;;17.40;95.10;;;;;;5040961;28;20049;-77
2021/04/28 08:55:08;;;;;;;1.85;1.30;;;17.70;94.80;;;;;;5052382;28;20423;-77
2021/04/28 08:57:34;;;;;;;3.72;1.25;;;18.10;93.90;;;;;;5046388;28;20090;-76
2021/04/28 09:00:00;;;;;;;3.00;1.00;;;18.50;91.70;;;;;;5034027;28;20101;-76
2021/04/28 09:02:27;;;;;;;2.95;1.60;;;18.70;91.80;;;;;;5041265;28;20455;-77
2021/04/28 09:05:11;;;;;;;3.75;1.33;;;19.10;92.40;;;;;;5035178;28;20108;-78
2021/04/28 09:07:42;;;;;;;4.82;1.45;;;19.50;91.10;;;;;;5038115;28;20500;-77
2021/04/28 09:10:09;;;;;;;6.13;1.45;;;19.90;87.50;;;;;;5052479;28;20020;-79
2021/04/28 09:12:40;;;;;;;5.80;1.73;;;19.80;88.00;;;;;;5041657;28;20076;-79
2021/04/28 09:15:10;;;;;;;13.55;1.70;;;19.40;91.30;;;;;;5052309;28;20021;-78
2021/04/28 09:17:52;;;;;;;14.27;1.75;;;18.70;91.60;;;;;;5041457;28;20391;-78
2021/04/28 09:20:27;;;;;;;4.90;1.83;;;18.50;92.10;;;;;;5013220;28;20026;-78
2021/04/28 09:23:14;;;;;;;6.85;2.03;;;17.90;93.80;;;;;;5037901;28;20033;-78
2021/04/28 09:25:41;;;;;;;4.43;1.55;;;17.50;95.70;;;;;;5052069;28;20574;-77
2021/04/28 09:28:29;;;;;;;4.30;1.92;;;17.40;95.70;;;;;;5040222;28;20029;-77
2021/04/28 09:31:07;;;;;;;3.53;1.80;;;17.70;95.60;;;;;;5051222;28;20060;-77
2021/04/28 09:33:51;;;;;;;2.67;1.88;;;17.70;94.50;;;;;;5043752;28;20379;-78
2021/04/28 09:36:39;;;;;;;3.72;1.73;;;17.70;94.90;;;;;;5048756;28;20068;-78
2021/04/28 09:39:17;;;;;;;6.33;2.20;;;17.60;97.20;;;;;;5043549;28;20434;-78
2021/04/28 09:41:57;;;;;;;5.88;2.45;;;17.50;96.50;;;;;;5048378;28;20115;-78
2021/04/28 09:44:31;;;;;;;15.55;2.67;;;16.90;97.60;;;;;;5046371;28;20057;-77
2021/04/28 09:47:15;;;;;;;5.15;2.03;;;16.50;98.40;;;;;;5046613;28;20029;-78
2021/04/28 09:49:45;;;;;;;5.45;2.35;;;16.20;99.60;;;;;;5049001;28;20048;-79
2021/04/28 09:52:12;;;;;;;3.75;1.92;;;16.20;98.90;;;;;;5045537;28;20369;-78
2021/04/28 09:54:41;;;;;;;9.82;2.17;;;16.10;99.80;;;;;;5050631;28;20116;-79
2021/04/28 09:57:07;;;;;;;4.38;1.77;;;16.10;98.90;;;;;;5060619;28;20045;-78
2021/04/28 09:59:47;;;;;;;2.70;2.08;;;16.10;99.60;;;;;;5067638;28;20036;-77
2021/04/28 10:02:33;;;;;;;4.10;1.90;;;16.20;99.90;;;;;;5052530;28;20037;-78
2021/04/28 10:05:18;;;;;;;8.52;2.25;;;16.10;99.90;;;;;;5052653;28;20036;-78
2021/04/28 10:07:44;;;;;;;3.13;2.30;;;16.00;99.30;;;;;;5061222;28;20057;-78
2021/04/28 10:10:11;;;;;;;4.53;2.00;;;15.90;99.90;;;;;;5073246;28;20009;-78
2021/04/28 10:12:37;;;;;;;;;;;15.90;99.90;;;;;;5044673;28;20025;-79
2021/04/28 10:15:04;;;;;;;5.53;2.17;;;15.90;98.70;;;;;;5050973;28;19919;-78
2021/04/28 10:17:32;;;;;;;4.13;2.13;;;16.00;99.90;;;;;;5041870;28;20110;-78
2021/04/28 10:19:58;;;;;;;3.65;2.38;;;16.30;99.70;;;;;;5050067;28;20032;-79
2021/04/28 10:22:25;;;;;;;7.22;2.75;;;16.50;99.00;;;;;;5042154;28;20037;-79
2021/04/28 10:24:53;;;;;;;5.28;2.20;;;16.60;99.90;;;;;;5048535;28;20024;-77
2021/04/28 10:27:20;;;;;;;11.23;2.38;;;16.70;98.60;;;;;;5042210;28;20025;-77
2021/04/28 10:29:48;;;;;;;6.75;3.17;;;16.70;98.00;;;;;;5047671;28;20028;-79
2021/04/28 10:32:16;;;;;;;5.60;2.88;;;16.70;98.00;;;;;;5041754;28;20102;-78
2021/04/28 10:34:52;;;;;;;6.32;2.22;;;16.40;99.90;;;;;;5045998;28;20056;-78
2021/04/28 10:37:25;;;;;;;3.10;2.65;;;16.50;99.90;;;;;;5042595;28;20033;-77
2021/04/28 10:39:51;;;;;;;2.78;2.28;;;16.50;99.90;;;;;;5047224;28;20028;-78
2021/04/28 10:42:24;;;;;;;3.58;1.90;;;16.60;99.90;;;;;;5042578;28;20033;-78
2021/04/28 10:44:50;;;;;;;10.88;2.45;;;16.40;99.30;;;;;;5048367;28;20025;-78
2021/04/28 10:47:28;;;;;;;5.38;2.05;;;16.40;99.70;;;;;;5042328;28;20033;-77
2021/04/28 10:50:00;;;;;;;;;;;16.70;99.90;;;;;;5048894;28;20091;-76
2021/04/28 10:52:31;;;;;;;4.75;2.63;;;17.30;98.70;;;;;;5041367;28;20323;-78
2021/04/28 10:54:56;;;;;;;3.78;2.60;;;17.70;99.20;;;;;;5049291;28;20483;-78
2021/04/28 10:57:32;;;;;;;9.07;2.70;;;18.10;97.90;;;;;;5041579;28;20040;-79
2021/04/28 11:00:00;;;;;;;6.22;2.45;;;18.10;97.60;;;;;;5049063;28;20033;-79
2021/04/28 11:02:30;;;;;;;11.30;2.70;;;17.70;96.90;;;;;;5041221;28;20044;-79
2021/04/28 11:05:04;;;;;;;5.70;3.22;;;17.80;97.80;;;;;;5047355;28;20415;-78
2021/04/28 11:07:43;;;;;;;5.85;2.90;;;17.80;97.70;;;;;;5040373;28;20249;-82
2021/04/28 11:10:27;;;;;;;4.88;2.70;;;17.80;98.80;;;;;;5049178;28;20021;-78
2021/04/28 11:13:04;;;;;;;5.13;3.10;;;17.90;98.00;;;;;;5037963;28;20083;-79
2021/04/28 11:15:49;;;;;;;4.82;2.50;;;17.80;97.80;;;;;;5050262;28;20368;-78
2021/04/28 11:18:31;;;;;;;8.00;2.75;;;17.90;98.20;;;;;;5040045;28;20396;-77
2021/04/28 11:21:19;;;;;;;5.00;2.80;;;17.80;97.60;;;;;;5031259;28;20492;-80
2021/04/28 11:24:09;;;;;;;9.13;2.80;;;18.00;98.60;;;;;;5041594;28;20044;-78
2021/04/28 11:26:46;;;;;;;5.25;2.97;;;17.80;98.60;;;;;;5046755;28;20383;-78
2021/04/28 11:29:12;;;;;;;9.88;3.30;;;17.60;99.00;;;;;;5034644;28;20021;-78
2021/04/28 11:31:44;;;;;;;5.20;2.80;;;17.30;99.50;;;;;;5047121;28;20037;-78
2021/04/28 11:34:27;;;;;;;6.78;3.15;;;17.60;99.90;;;;;;5010953;28;20456;-78
2021/04/28 11:37:03;;;;;;;5.18;2.90;;;17.90;98.90;;;;;;5026228;28;20055;-80
2021/04/28 11:39:35;;;;;;;9.15;2.72;;;17.80;98.80;;;;;;5044566;28;20025;-77
2021/04/28 11:42:07;;;;;;;3.92;2.58;;;17.50;99.20;;;;;;5039766;28;20104;-79
2021/04/28 11:44:34;;;;;;;6.85;3.20;;;17.60;99.80;;;;;;5042390;28;20507;-79
2021/04/28 11:47:09;;;;;;;5.03;3.33;;;17.20;99.90;;;;;;5041440;28;20031;-78
2021/04/28 11:49:39;;;;;;;4.53;2.92;;;16.70;99.90;;;;;;5041737;28;20036;-78
2021/04/28 11:52:06;;;;;;;4.55;3.45;;;16.30;99.90;;;;;;5045610;28;20033;-77
2021/04/28 11:54:33;;;;;;;3.58;2.95;;;16.50;99.90;;;;;;5035572;28;20380;-78
2021/04/28 11:56:58;;;;;;;8.48;2.95;;;16.60;99.90;;;;;;5036736;28;20055;-78
2021/04/28 11:59:28;;;;;;;4.43;2.90;;;16.70;99.90;;;;;;5045103;28;20501;-77
2021/04/28 12:01:58;;;;;;;8.45;2.92;;;16.90;99.90;;;;;;5044258;28;20041;-81
2021/04/28 12:04:29;;;;;;;5.20;2.90;;;17.60;99.90;;;;;;5045098;28;20021;-76
2021/04/28 12:06:55;;;;;;;6.53;3.15;;;18.10;98.90;;;;;;5045897;28;20099;-78
2021/04/28 12:09:31;;;;;;;7.05;3.22;;;17.70;99.40;;;;;;5044324;28;20024;-77
2021/04/28 12:12:09;;;;;;;3.83;2.92;;;17.80;99.40;;;;;;5045010;28;20094;-79
2021/04/28 12:14:35;;;;;;;6.20;2.42;;;18.20;98.10;;;;;;5046343;28;20029;-80
2021/04/28 12:17:01;;;;;;;5.20;2.95;;;18.60;96.90;;;;;;5044958;28;20029;-78
2021/04/28 12:19:28;;;;;;;5.32;2.58;;;18.60;96.50;;;;;;5045396;28;20036;-78
2021/04/28 12:22:01;;;;;;;5.18;2.78;;;18.30;96.50;;;;;;5045465;28;20041;-78
2021/04/28 12:24:29;;;;;;;7.65;3.05;;;17.70;97.70;;;;;;5043674;28;20255;-78
2021/04/28 12:27:21;;;;;;;8.02;3.15;;;17.90;97.80;;;;;;5048833;28;20029;-78
2021/04/28 12:29:53;;;;;;;4.60;2.55;;;19.40;95.90;;;;;;5028551;28;20045;-76
2021/04/28 12:32:30;;;;;;;8.07;2.38;;;21.10;91.90;;;;;;5029590;28;20040;-76
2021/04/28 12:35:16;;;;;;;3.40;2.30;;;23.00;87.30;;;;;;5035422;28;20021;-77
2021/04/28 12:38:02;;;;;;;4.55;2.00;;;24.10;80.30;;;;;;5034845;28;20025;-76
2021/04/28 12:40:38;;;;;;;3.65;2.42;;;23.50;77.50;;;;;;5011015;28;20026;-75
2021/04/28 12:43:07;;;;;;;3.08;2.13;;;22.60;83.10;;;;;;5038649;28;20049;-77
2021/04/28 12:45:33;;;;;;;3.63;2.03;;;21.40;87.00;;;;;;5050581;28;20456;-77
2021/04/28 12:48:10;;;;;;;3.83;1.90;;;22.90;85.30;;;;;;5041762;28;20033;-77
2021/04/28 12:50:36;;;;;;;4.32;2.30;;;24.20;74.30;;;;;;5030790;28;20022;-77
2021/04/28 12:53:08;;;;;;;6.22;2.75;;;25.10;72.50;;;;;;5036987;28;20025;-77
2021/04/28 12:55:43;;;;;;;3.60;2.13;;;25.70;70.10;;;;;;5050514;28;20036;-77